Time;durP1;ratioP1;P1;durP2;ratioP2;P2;SDS_P1;SDS_P2;PMS_P1;PMS_P2;Temp;Humidity;BMP_temperature;BMP_pressure;BME280_temperature;BME280_humidity;BME280_pressure;Samples;Min_cycle;Max_cycle;Signal;HPM_P1;HPM_P2
2022/04/14 00:02:43;;;;;;;10.13;6.73;;;;;;;15.24;47.41;97901.31;8347763;28;20518;-68
2022/04/14 00:06:46;;;;;;;11.57;6.53;;;;;;;15.20;47.48;97898.03;8348738;28;20271;-68
2022/04/14 00:10:50;;;;;;;9.43;6.00;;;;;;;15.30;47.23;97895.69;8354249;28;20752;-69
2022/04/14 00:14:54;;;;;;;8.57;6.23;;;;;;;15.08;47.96;97896.25;8355039;28;20228;-69
2022/04/14 00:18:57;;;;;;;7.03;5.63;;;;;;;15.09;47.56;97900.50;8354817;28;20207;-73
2022/04/14 00:23:00;;;;;;;6.53;5.70;;;;;;;15.07;47.98;97901.53;8355197;28;20224;-69
2022/04/14 00:27:07;;;;;;;8.33;6.20;;;;;;;14.95;48.18;97906.59;8355658;28;20278;-69
2022/04/14 00:31:11;;;;;;;9.53;6.13;;;;;;;14.95;48.13;97906.59;8355439;28;20244;-69
2022/04/14 00:35:14;;;;;;;7.60;6.00;;;;;;;15.02;47.86;97902.69;8354787;28;20531;-69
2022/04/14 00:39:17;;;;;;;10.87;5.63;;;;;;;14.99;48.07;97900.25;8353659;28;20211;-69
2022/04/14 00:43:29;;;;;;;8.43;6.00;;;;;;;14.90;47.97;97894.78;8354155;28;20204;-69
2022/04/14 00:47:32;;;;;;;6.63;5.50;;;;;;;14.86;48.22;97888.94;8354264;28;20212;-69
2022/04/14 00:51:34;;;;;;;7.67;6.00;;;;;;;14.80;48.59;97902.34;8353925;28;20201;-69
2022/04/14 00:55:37;;;;;;;8.40;6.60;;;;;;;14.77;48.79;97894.72;8353981;28;20233;-69
2022/04/14 00:59:42;;;;;;;12.93;6.63;;;;;;;14.71;48.72;97897.72;8354049;28;20212;-69
2022/04/14 01:03:46;;;;;;;11.13;6.80;;;;;;;14.65;49.25;97898.94;8353757;28;20226;-69
2022/04/14 01:07:49;;;;;;;12.40;6.87;;;;;;;14.63;48.99;97895.59;8353281;28;20235;-69
2022/04/14 01:11:54;;;;;;;13.63;6.23;;;;;;;14.60;49.12;97891.41;8353256;28;20211;-69
2022/04/14 01:16:00;;;;;;;8.97;6.57;;;;;;;14.63;49.22;97893.81;8353068;28;20554;-71
2022/04/14 01:20:04;;;;;;;10.40;7.30;;;;;;;14.60;49.50;97907.03;8352105;28;20205;-69
2022/04/14 01:24:09;;;;;;;10.27;7.13;;;;;;;14.54;49.64;97906.53;8353194;28;20207;-69
2022/04/14 01:28:12;;;;;;;12.37;7.13;;;;;;;14.38;49.48;97901.44;8353090;28;20513;-69
2022/04/14 01:32:15;;;;;;;8.73;7.33;;;;;;;14.54;49.54;97903.94;8352669;28;20200;-69
2022/04/14 01:36:19;;;;;;;10.97;7.30;;;;;;;14.45;49.53;97903.56;8352622;28;20519;-69
2022/04/14 01:40:24;;;;;;;11.53;7.00;;;;;;;14.31;49.44;97915.75;8352343;28;20276;-69
2022/04/14 01:44:27;;;;;;;9.13;6.57;;;;;;;14.27;49.08;97918.53;8352461;28;20211;-69
2022/04/14 01:48:30;;;;;;;9.23;6.13;;;;;;;14.11;49.56;97920.41;8352512;28;20280;-69
2022/04/14 01:52:33;;;;;;;8.03;6.30;;;;;;;14.14;49.24;97921.97;8352410;28;20401;-69
2022/04/14 01:56:37;;;;;;;7.37;6.33;;;;;;;14.17;49.56;97932.22;8352007;28;20247;-69
2022/04/14 02:00:40;;;;;;;8.43;6.20;;;;;;;14.07;49.28;97930.16;8351920;28;20372;-69
2022/04/14 02:04:44;;;;;;;10.37;6.27;;;;;;;14.08;49.47;97920.56;8352106;28;20211;-69
2022/04/14 02:08:47;;;;;;;8.13;5.97;;;;;;;14.00;49.93;97923.63;8351442;28;20221;-69
2022/04/14 02:12:51;;;;;;;12.43;6.47;;;;;;;14.04;49.67;97924.28;8351445;28;20204;-69
2022/04/14 02:16:54;;;;;;;9.40;6.80;;;;;;;13.93;49.64;97924.91;8351266;28;20228;-70
2022/04/14 02:20:57;;;;;;;10.67;6.77;;;;;;;14.00;49.83;97928.00;8351518;28;20451;-70
2022/04/14 02:25:00;;;;;;;8.30;6.40;;;;;;;13.88;50.15;97922.59;8351084;28;20407;-69
2022/04/14 02:29:08;;;;;;;11.57;6.27;;;;;;;13.85;49.84;97933.16;8351083;28;20212;-69
2022/04/14 02:33:10;;;;;;;10.27;6.30;;;;;;;13.82;49.58;97937.72;8350558;28;20204;-69
2022/04/14 02:37:13;;;;;;;7.43;6.17;;;;;;;13.83;49.66;97928.97;8350612;28;20232;-68
2022/04/14 02:41:16;;;;;;;10.10;6.57;;;;;;;13.78;49.93;97923.19;8350605;28;20211;-69
2022/04/14 02:45:21;;;;;;;7.93;6.43;;;;;;;13.84;49.98;97930.66;8350690;28;20274;-69
2022/04/14 02:49:24;;;;;;;7.77;6.00;;;;;;;13.81;49.95;97942.09;8350388;28;20201;-69
2022/04/14 02:53:27;;;;;;;7.47;5.87;;;;;;;13.75;50.48;97937.25;8350154;28;20201;-69
2022/04/14 02:57:30;;;;;;;7.80;5.80;;;;;;;13.72;50.48;97940.00;8350181;28;20224;-70
2022/04/14 03:01:35;;;;;;;11.47;5.80;;;;;;;13.76;50.21;97938.06;8343367;28;20205;-69
2022/04/14 03:05:38;;;;;;;9.93;5.93;;;;;;;13.67;50.14;97937.69;8317037;28;20271;-69
2022/04/14 03:09:41;;;;;;;9.47;5.90;;;;;;;13.73;49.95;97939.09;8317282;28;20407;-69
2022/04/14 03:13:44;;;;;;;9.60;6.03;;;;;;;13.68;50.25;97941.13;8316956;28;20201;-69
2022/04/14 03:17:49;;;;;;;8.93;6.33;;;;;;;13.60;50.75;97938.13;8317297;28;20228;-69
2022/04/14 03:21:52;;;;;;;9.73;6.40;;;;;;;13.60;50.47;97932.91;8317013;28;20312;-69
2022/04/14 03:25:54;;;;;;;9.17;6.37;;;;;;;13.53;50.94;97935.00;8316798;28;20213;-69
2022/04/14 03:29:57;;;;;;;9.83;6.63;;;;;;;13.61;50.97;97938.03;8316594;28;20365;-69
2022/04/14 03:34:02;;;;;;;7.43;6.27;;;;;;;13.54;50.72;97946.28;8316682;28;20211;-69
2022/04/14 03:38:05;;;;;;;7.33;6.37;;;;;;;13.45;50.85;97947.63;8316465;28;20236;-69
2022/04/14 03:42:27;;;;;;;11.00;6.33;;;;;;;13.35;50.68;97947.31;8317807;28;20197;-69
2022/04/14 03:46:31;;;;;;;8.47;6.60;;;;;;;13.28;50.81;97949.38;8323277;28;20216;-70
2022/04/14 03:50:35;;;;;;;10.20;6.73;;;;;;;13.21;50.69;97960.19;8322957;28;20205;-69
2022/04/14 03:54:38;;;;;;;11.70;6.10;;;;;;;13.18;50.03;97974.22;8322999;28;20458;-69
2022/04/14 03:58:41;;;;;;;9.43;6.03;;;;;;;13.09;50.57;97965.13;8322695;28;20229;-69
2022/04/14 04:02:44;;;;;;;11.93;6.73;;;;;;;13.09;50.87;97962.53;8338956;28;20208;-69
2022/04/14 04:06:49;;;;;;;9.10;6.90;;;;;;;12.97;51.01;97965.81;8354628;28;20314;-69
2022/04/14 04:10:51;;;;;;;8.97;6.93;;;;;;;13.10;50.91;97953.84;8355201;28;20200;-69
2022/04/14 04:14:54;;;;;;;10.70;7.00;;;;;;;13.00;51.18;97957.84;8355409;28;20380;-69
2022/04/14 04:18:57;;;;;;;8.90;6.80;;;;;;;12.98;51.18;97962.28;8355198;28;20416;-72
2022/04/14 04:23:04;;;;;;;7.70;6.90;;;;;;;13.03;50.57;97970.69;8354897;28;20398;-69
2022/04/14 04:27:07;;;;;;;12.10;6.67;;;;;;;13.00;50.52;97968.22;8354627;28;20192;-69
2022/04/14 04:31:10;;;;;;;9.97;7.20;;;;;;;12.93;50.81;97966.91;8354636;28;20200;-69
2022/04/14 04:35:13;;;;;;;11.50;7.03;;;;;;;12.94;50.82;97970.34;8354855;28;20212;-69
2022/04/14 04:39:18;;;;;;;11.73;6.80;;;;;;;12.93;51.14;97979.03;8354326;28;20200;-69
2022/04/14 04:43:21;;;;;;;8.33;6.47;;;;;;;12.91;51.08;97982.59;8354742;28;20208;-69
2022/04/14 04:47:24;;;;;;;9.97;7.00;;;;;;;12.96;51.12;97984.09;8353958;28;20205;-69
2022/04/14 04:51:33;;;;;;;9.47;8.23;;;;;;;12.89;51.19;97983.59;8354563;28;20185;-69
2022/04/14 04:55:38;;;;;;;10.40;8.03;;;;;;;12.95;51.05;97983.25;8353247;28;20236;-70
2022/04/14 04:59:40;;;;;;;10.90;7.60;;;;;;;12.93;51.15;97998.09;8320992;28;20201;-69
2022/04/14 05:03:43;;;;;;;10.40;8.37;;;;;;;12.90;51.35;97995.66;8345112;28;20522;-70
2022/04/14 05:07:46;;;;;;;13.83;7.73;;;;;;;12.88;51.75;97994.91;8353571;28;20220;-69
2022/04/14 05:11:51;;;;;;;12.93;7.77;;;;;;;12.79;52.12;98006.59;8353442;28;20200;-69
2022/04/14 05:15:54;;;;;;;11.20;7.37;;;;;;;12.85;52.06;98016.72;8353168;28;20224;-69
2022/04/14 05:19:57;;;;;;;13.17;7.27;;;;;;;13.02;51.79;98026.22;8353283;28;20204;-69
2022/04/14 05:24:00;;;;;;;14.23;7.43;;;;;;;13.05;51.54;98027.78;8353066;28;20200;-70
2022/04/14 05:28:04;;;;;;;10.00;7.20;;;;;;;13.06;52.14;98034.66;8353086;28;20212;-69
2022/04/14 05:32:09;;;;;;;14.37;8.40;;;;;;;13.41;51.51;98034.56;8353048;28;20518;-69
2022/04/14 05:36:12;;;;;;;11.73;7.87;;;;;;;13.50;51.17;98041.88;8352543;28;20232;-69
2022/04/14 05:40:15;;;;;;;9.30;7.90;;;;;;;13.67;51.75;98046.16;8352575;28;20420;-69
2022/04/14 05:44:20;;;;;;;11.17;8.30;;;;;;;14.00;50.79;98053.81;8352344;28;20207;-69
2022/04/14 05:48:23;;;;;;;9.70;8.70;;;;;;;14.23;50.63;98056.88;8352272;28;20204;-69
2022/04/14 05:52:25;;;;;;;11.33;8.30;;;;;;;14.58;50.19;98067.00;8352048;28;20200;-69
2022/04/14 05:56:28;;;;;;;14.10;8.03;;;;;;;14.81;50.39;98060.44;8351771;28;20243;-69
2022/04/14 06:00:34;;;;;;;13.40;8.07;;;;;;;14.76;50.36;98062.50;8351779;28;20207;-69
2022/04/14 06:04:37;;;;;;;11.27;7.70;;;;;;;14.70;50.57;98060.22;8351089;28;20200;-69
2022/04/14 06:08:39;;;;;;;11.00;7.60;;;;;;;14.60;50.87;98057.34;8351380;28;20224;-69
2022/04/14 06:12:43;;;;;;;10.87;8.07;;;;;;;14.69;51.12;98063.78;8351412;28;20230;-70
2022/04/14 06:16:47;;;;;;;12.63;7.77;;;;;;;14.99;50.25;98061.09;8351232;28;20232;-69
2022/04/14 06:20:53;;;;;;;13.23;7.50;;;;;;;14.90;50.49;98066.88;8351272;28;20211;-69
2022/04/14 06:24:58;;;;;;;10.97;7.57;;;;;;;15.18;49.99;98071.25;8351442;28;20514;-69
2022/04/14 06:29:02;;;;;;;10.50;8.23;;;;;;;15.21;50.06;98074.50;8351436;28;20211;-69
2022/04/14 06:33:06;;;;;;;16.50;7.83;;;;;;;15.95;49.02;98066.44;8351095;28;20514;-69
2022/04/14 06:37:09;;;;;;;13.10;7.17;;;;;;;15.86;49.27;98064.41;8351210;28;20250;-69
2022/04/14 06:41:12;;;;;;;9.53;6.90;;;;;;;15.95;49.02;98058.59;8350585;28;20207;-69
2022/04/14 06:45:16;;;;;;;11.00;7.13;;;;;;;16.29;48.72;98066.84;8350611;28;20495;-69
2022/04/14 06:49:20;;;;;;;10.33;7.17;;;;;;;16.03;48.77;98069.41;8350521;28;20200;-69
2022/04/14 06:53:23;;;;;;;14.37;7.00;;;;;;;16.14;49.04;98060.84;8350060;28;20205;-69
2022/04/14 06:57:26;;;;;;;9.37;6.00;;;;;;;16.39;48.52;98058.31;8350169;28;20228;-69
2022/04/14 07:01:29;;;;;;;17.33;6.80;;;;;;;16.88;47.28;98061.19;8349958;28;20402;-69
2022/04/14 07:05:33;;;;;;;8.73;6.60;;;;;;;16.98;46.70;98055.22;8349961;28;20222;-69
2022/04/14 07:09:37;;;;;;;11.63;6.87;;;;;;;16.99;46.78;98058.69;8349739;28;20231;-69
2022/04/14 07:13:40;;;;;;;13.13;6.67;;;;;;;17.32;46.21;98058.09;8349986;28;20496;-69
2022/04/14 07:17:43;;;;;;;11.87;7.63;;;;;;;17.49;46.08;98049.03;8349613;28;20234;-70
2022/04/14 07:21:48;;;;;;;10.47;6.57;;;;;;;17.96;44.03;98060.53;8349546;28;20274;-69
2022/04/14 07:25:51;;;;;;;9.20;6.60;;;;;;;18.00;43.36;98070.78;8349477;28;20386;-69
2022/04/14 07:29:54;;;;;;;9.20;6.77;;;;;;;17.98;44.08;98070.91;8349349;28;20216;-69
2022/04/14 07:33:57;;;;;;;9.90;6.50;;;;;;;18.26;44.46;98069.72;8349419;28;20226;-69
2022/04/14 07:38:01;;;;;;;8.70;6.80;;;;;;;18.83;44.07;98067.22;8349405;28;20531;-69
2022/04/14 07:42:04;;;;;;;11.47;6.33;;;;;;;19.37;42.54;98076.22;8349331;28;20240;-69
2022/04/14 07:46:07;;;;;;;12.37;6.70;;;;;;;19.28;42.35;98078.59;8349114;28;20219;-69
2022/04/14 07:50:10;;;;;;;9.20;7.00;;;;;;;19.82;41.39;98070.91;8348967;28;20216;-69
2022/04/14 07:54:15;;;;;;;9.90;7.07;;;;;;;20.14;40.78;98081.44;8348857;28;20239;-69
2022/04/14 07:58:18;;;;;;;7.40;2.97;;;;;;;20.40;48.36;98075.81;8347603;28;20233;-58
2022/04/14 08:02:21;;;;;;;10.60;6.57;;;;;;;20.25;41.32;98084.00;8348481;28;20208;-58
2022/04/14 08:06:25;;;;;;;9.80;5.80;;;;;;;20.51;42.48;98086.28;8348835;28;20208;-58
2022/04/14 08:10:29;;;;;;;13.70;5.70;;;;;;;20.99;41.83;98090.22;8348685;28;20236;-58
2022/04/14 08:14:32;;;;;;;11.17;6.43;;;;;;;21.11;40.48;98091.78;8348401;28;20202;-59
2022/04/14 08:18:36;;;;;;;12.93;6.97;;;;;;;20.44;40.17;98107.00;8345456;28;20223;-58
2022/04/14 08:22:46;;;;;;;12.73;6.57;;;;;;;21.52;39.12;98108.50;8348014;28;20192;-59
2022/04/14 08:26:52;;;;;;;12.00;6.50;;;;;;;21.42;39.96;98102.34;8347501;28;20195;-59
2022/04/14 08:30:56;;;;;;;13.20;5.67;;;;;;;21.68;39.00;98105.34;8352325;28;20492;-59
2022/04/14 08:34:59;;;;;;;7.47;6.03;;;;;;;21.77;39.12;98104.53;8353501;28;20428;-59
2022/04/14 08:39:02;;;;;;;10.80;6.43;;;;;;;21.68;38.74;98107.97;8353102;28;20228;-59
2022/04/14 08:43:07;;;;;;;9.43;6.03;;;;;;;21.77;38.57;98108.97;8350860;28;20193;-59
2022/04/14 08:47:10;;;;;;;8.30;5.97;;;;;;;22.08;37.65;98106.25;8353094;28;20215;-59
2022/04/14 08:51:14;;;;;;;13.47;7.03;;;;;;;21.46;36.69;98107.22;8353097;28;20197;-57
2022/04/14 08:55:17;;;;;;;8.07;6.63;;;;;;;21.93;37.23;98105.81;8352802;28;20585;-57
2022/04/14 08:59:22;;;;;;;15.80;7.07;;;;;;;22.32;36.39;98109.34;8353076;28;20478;-57
2022/04/14 09:03:28;;;;;;;8.37;5.90;;;;;;;22.80;36.06;98112.91;8350892;28;20367;-58
2022/04/14 09:07:31;;;;;;;10.27;6.77;;;;;;;23.03;34.91;98121.38;8352382;28;20274;-58
2022/04/14 09:11:34;;;;;;;10.43;6.90;;;;;;;22.48;35.93;98131.69;8352135;28;20196;-58
2022/04/14 09:15:39;;;;;;;10.93;7.30;;;;;;;22.84;35.05;98125.69;8352364;28;20255;-57
2022/04/14 09:19:43;;;;;;;12.93;7.07;;;;;;;22.55;35.16;98130.19;8352728;28;20227;-58
2022/04/14 09:23:51;;;;;;;12.33;6.40;;;;;;;22.94;35.09;98116.91;8352534;28;20193;-58
2022/04/14 09:28:08;;;;;;;13.37;6.83;;;;;;;23.19;34.20;98128.72;8352469;28;20501;-59
2022/04/14 09:32:27;;;;;;;16.00;6.50;;;;;;;23.64;33.05;98122.66;8351443;28;20320;-57
2022/04/14 09:36:30;;;;;;;11.43;6.80;;;;;;;23.66;32.77;98110.13;8352821;28;20484;-57
2022/04/14 09:40:34;;;;;;;11.67;6.70;;;;;;;23.64;33.00;98120.03;8351564;28;20228;-58
2022/04/14 09:44:37;;;;;;;11.27;7.70;;;;;;;24.07;30.65;98118.56;8352306;28;20203;-58
2022/04/14 09:49:09;;;;;;;12.60;7.53;;;;;;;23.97;31.22;98123.91;8352317;28;20204;-58
2022/04/14 09:53:18;;;;;;;9.83;6.53;;;;;;;24.41;31.64;98123.19;8351785;28;20393;-58
2022/04/14 09:57:22;;;;;;;13.63;6.00;;;;;;;24.80;30.53;98112.25;8351602;28;20539;-57
2022/04/14 10:01:25;;;;;;;8.70;6.33;;;;;;;24.95;30.79;98115.19;8351622;28;20206;-57
2022/04/14 10:05:35;;;;;;;10.10;6.00;;;;;;;24.88;31.61;98114.13;8351356;28;20215;-58
2022/04/14 10:09:45;;;;;;;8.83;6.20;;;;;;;24.86;31.05;98108.16;8350345;28;20240;-59
2022/04/14 10:13:49;;;;;;;13.43;6.50;;;;;;;24.85;30.97;98111.81;8318617;28;20209;-59
2022/04/14 10:17:53;;;;;;;12.83;6.67;;;;;;;23.96;31.99;98109.00;8318357;28;20241;-58
2022/04/14 10:21:58;;;;;;;9.93;6.20;;;;;;;25.06;31.68;98103.50;8318352;28;20210;-58
2022/04/14 10:26:01;;;;;;;10.37;6.40;;;;;;;24.74;31.73;98105.75;8318166;28;20205;-58
2022/04/14 10:30:05;;;;;;;10.70;6.27;;;;;;;25.22;31.26;98108.06;8318298;28;20211;-58
2022/04/14 10:34:09;;;;;;;10.50;5.97;;;;;;;25.55;32.36;98104.59;8317989;28;20206;-59
2022/04/14 10:38:16;;;;;;;10.43;6.60;;;;;;;25.86;30.61;98101.38;8317776;28;20229;-58
2022/04/14 10:42:26;;;;;;;11.17;6.17;;;;;;;26.17;31.11;98102.63;8318068;28;20200;-58
2022/04/14 10:46:33;;;;;;;10.20;6.07;;;;;;;25.83;30.92;98099.03;8318527;28;20201;-59
2022/04/14 10:50:36;;;;;;;9.13;6.63;;;;;;;25.95;30.94;98099.63;8349708;28;20209;-58
2022/04/14 10:54:59;;;;;;;12.70;5.93;;;;;;;25.62;30.15;98098.66;8349748;28;20245;-58
2022/04/14 10:59:02;;;;;;;12.00;5.77;;;;;;;26.18;30.85;98097.16;8349807;28;20559;-58
2022/04/14 11:03:07;;;;;;;10.57;5.90;;;;;;;26.44;30.04;98094.34;8349369;28;20239;-58
2022/04/14 11:07:12;;;;;;;11.83;6.00;;;;;;;26.49;30.24;98099.16;8349976;28;20540;-58
2022/04/14 11:11:17;;;;;;;10.83;5.83;;;;;;;26.79;29.38;98102.16;8349771;28;20208;-58
2022/04/14 11:15:30;;;;;;;8.90;6.00;;;;;;;26.69;28.72;98104.97;8348970;28;20211;-58
2022/04/14 11:19:33;;;;;;;15.80;6.53;;;;;;;26.72;28.94;98099.34;8349456;28;20239;-58
2022/04/14 11:23:36;;;;;;;11.73;6.10;;;;;;;26.95;28.22;98096.00;8349780;28;20205;-58
2022/04/14 11:27:41;;;;;;;11.53;5.93;;;;;;;27.08;28.07;98101.63;8348825;28;20383;-58
2022/04/14 11:31:46;;;;;;;9.93;6.10;;;;;;;26.80;28.25;98098.50;8347970;28;20203;-59
2022/04/14 11:35:49;;;;;;;9.53;5.80;;;;;;;26.55;28.98;98103.81;8349414;28;20207;-58
2022/04/14 11:40:10;;;;;;;13.83;6.23;;;;;;;26.78;28.99;98106.66;8349150;28;20229;-57
2022/04/14 11:44:16;;;;;;;10.63;5.70;;;;;;;26.82;29.59;98113.28;8349647;28;20242;-58
2022/04/14 11:48:19;;;;;;;12.57;5.87;;;;;;;27.03;29.19;98107.44;8349160;28;20208;-58
2022/04/14 11:52:22;;;;;;;9.23;6.27;;;;;;;26.90;29.64;98102.66;8349072;28;20202;-58
2022/04/14 11:56:26;;;;;;;11.63;7.37;;;;;;;26.85;29.69;98101.50;8348696;28;20239;-57
2022/04/14 12:00:30;;;;;;;9.10;7.00;;;;;;;27.25;29.09;98097.94;8348728;28;20235;-58
2022/04/14 12:04:38;;;;;;;14.53;7.20;;;;;;;26.95;29.37;98101.31;8351343;28;20204;-59
2022/04/14 12:08:41;;;;;;;8.47;7.00;;;;;;;26.89;28.52;98108.13;8355388;28;20423;-57
2022/04/14 12:12:45;;;;;;;9.77;6.07;;;;;;;27.17;28.20;98105.91;8355290;28;20196;-60
2022/04/14 12:16:51;;;;;;;10.97;6.57;;;;;;;27.10;27.58;98096.97;8354929;28;20198;-58
2022/04/14 12:20:54;;;;;;;11.30;6.70;;;;;;;27.08;28.25;98099.78;8355051;28;20290;-58
2022/04/14 12:25:00;;;;;;;11.43;6.70;;;;;;;27.35;28.81;98089.75;8354789;28;20219;-58
2022/04/14 12:29:03;;;;;;;14.27;7.60;;;;;;;27.07;28.38;98100.81;8354672;28;20191;-58
2022/04/14 12:33:10;;;;;;;13.37;7.07;;;;;;;27.37;27.84;98085.09;8354689;28;20201;-58
2022/04/14 12:37:15;;;;;;;9.37;6.80;;;;;;;27.35;28.18;98088.94;8354598;28;20223;-58
2022/04/14 12:41:19;;;;;;;13.93;7.33;;;;;;;27.15;28.30;98089.31;8354198;28;20225;-58
2022/04/14 12:45:22;;;;;;;10.80;7.33;;;;;;;27.22;28.37;98092.09;8354528;28;20225;-58
2022/04/14 12:49:33;;;;;;;12.23;7.17;;;;;;;27.30;28.33;98084.13;8354095;28;20220;-58
2022/04/14 12:53:36;;;;;;;9.83;6.73;;;;;;;27.51;28.00;98080.88;8354008;28;20208;-58
2022/04/14 12:57:39;;;;;;;13.80;7.87;;;;;;;27.26;28.23;98081.00;8353998;28;20203;-59
2022/04/14 13:01:49;;;;;;;12.57;7.43;;;;;;;27.30;28.49;98077.00;8353421;28;20226;-59
2022/04/14 13:05:56;;;;;;;12.43;8.30;;;;;;;27.30;27.88;98076.16;8353667;28;20213;-59
2022/04/14 13:10:00;;;;;;;14.17;8.10;;;;;;;27.05;27.74;98086.81;8353391;28;20221;-59
2022/04/14 13:14:16;;;;;;;11.43;6.87;;;;;;;27.18;28.35;98074.84;8353106;28;20210;-58
2022/04/14 13:18:19;;;;;;;8.93;6.80;;;;;;;27.15;27.95;98073.38;8353401;28;20396;-58
2022/04/14 13:22:24;;;;;;;8.53;5.53;;;;;;;27.27;27.65;98073.84;8353250;28;20212;-59
2022/04/14 13:26:27;;;;;;;9.47;6.70;;;;;;;27.06;28.53;98077.03;8353071;28;20202;-58
2022/04/14 13:30:30;;;;;;;11.73;7.53;;;;;;;26.87;28.28;98080.91;8352785;28;20214;-58
2022/04/14 13:34:33;;;;;;;9.23;6.93;;;;;;;26.86;27.85;98076.56;8353125;28;20201;-59
2022/04/14 13:38:40;;;;;;;11.57;6.20;;;;;;;26.80;28.86;98063.97;8352679;28;20225;-59
2022/04/14 13:42:43;;;;;;;13.07;6.97;;;;;;;26.85;28.61;98066.97;8352508;28;20397;-59
2022/04/14 13:46:46;;;;;;;11.00;6.00;;;;;;;26.85;28.77;98059.81;8352191;28;20412;-58
2022/04/14 13:50:49;;;;;;;10.73;7.00;;;;;;;26.53;29.81;98068.63;8352163;28;20207;-58
2022/04/14 13:54:53;;;;;;;11.13;5.73;;;;;;;26.61;29.16;98068.63;8352147;28;20300;-58
2022/04/14 13:58:56;;;;;;;8.80;6.57;;;;;;;26.55;29.15;98063.16;8351801;28;20434;-58
2022/04/14 14:02:59;;;;;;;10.70;6.40;;;;;;;26.42;29.05;98061.00;8351649;28;20201;-58
2022/04/14 14:07:02;;;;;;;8.20;4.83;;;;;;;26.62;28.72;98050.91;8352136;28;20366;-58
2022/04/14 14:11:07;;;;;;;13.23;5.10;;;;;;;26.38;28.36;98059.69;8351523;28;20528;-58
2022/04/14 14:15:10;;;;;;;23.93;5.27;;;;;;;26.35;28.51;98068.81;8351644;28;20206;-58
2022/04/14 14:19:13;;;;;;;11.17;5.30;;;;;;;26.10;28.36;98067.94;8350991;28;20220;-58
2022/04/14 14:23:16;;;;;;;7.10;4.60;;;;;;;26.17;27.45;98068.94;8350983;28;20523;-57
2022/04/14 14:27:21;;;;;;;13.13;4.60;;;;;;;26.17;27.91;98063.66;8350520;28;20391;-58
2022/04/14 14:31:25;;;;;;;8.33;4.50;;;;;;;26.17;29.11;98062.81;8350787;28;20214;-58
2022/04/14 14:35:28;;;;;;;9.43;5.40;;;;;;;25.88;29.66;98064.09;8350743;28;20233;-57
2022/04/14 14:39:31;;;;;;;9.37;4.30;;;;;;;25.92;29.96;98060.97;8350243;28;20552;-58
2022/04/14 14:43:37;;;;;;;7.73;4.33;;;;;;;25.90;29.95;98062.91;8350179;28;20388;-58
2022/04/14 14:47:40;;;;;;;6.80;3.80;;;;;;;25.86;29.72;98066.88;8350302;28;20213;-57
2022/04/14 14:51:44;;;;;;;6.73;3.70;;;;;;;25.88;29.80;98056.94;8350335;28;20207;-58
2022/04/14 14:55:47;;;;;;;6.73;3.60;;;;;;;25.63;29.40;98065.84;8350047;28;20545;-58
2022/04/14 14:59:51;;;;;;;7.60;3.57;;;;;;;25.41;29.35;98065.44;8350060;28;20407;-58
2022/04/14 15:03:54;;;;;;;11.17;4.30;;;;;;;25.40;30.17;98069.09;8349887;28;20201;-57
2022/04/14 15:07:57;;;;;;;5.97;3.80;;;;;;;25.55;30.38;98072.78;8349769;28;20222;-58
2022/04/14 15:12:00;;;;;;;10.23;3.53;;;;;;;25.31;30.00;98075.34;8349653;28;20394;-57
2022/04/14 15:16:05;;;;;;;8.40;3.97;;;;;;;25.11;29.73;98067.59;8349221;28;20551;-59
2022/04/14 15:20:09;;;;;;;6.00;3.37;;;;;;;25.15;30.60;98071.59;8316897;28;20335;-57
2022/04/14 15:24:12;;;;;;;8.40;3.97;;;;;;;24.85;30.90;98075.56;8316993;28;20203;-58
2022/04/14 15:28:15;;;;;;;6.07;3.73;;;;;;;24.39;31.95;98082.81;8316724;28;20537;-57
2022/04/14 15:32:20;;;;;;;7.87;3.83;;;;;;;24.24;32.53;98081.66;8316591;28;20206;-57
2022/04/14 15:36:23;;;;;;;7.43;4.03;;;;;;;24.31;32.85;98080.06;8316541;28;20512;-57
2022/04/14 15:40:26;;;;;;;14.63;4.10;;;;;;;24.12;33.18;98079.28;8315443;28;20544;-57
2022/04/14 15:44:31;;;;;;;8.83;4.67;;;;;;;23.84;34.36;98086.41;8346278;28;20201;-57
2022/04/14 15:48:36;;;;;;;9.83;4.00;;;;;;;23.88;33.92;98092.25;8349458;28;20200;-57
2022/04/14 15:52:40;;;;;;;10.30;3.93;;;;;;;24.18;33.72;98091.06;8349070;28;20272;-57
2022/04/14 15:56:43;;;;;;;9.60;4.13;;;;;;;24.11;34.83;98092.63;8349562;28;20236;-57
2022/04/14 16:00:50;;;;;;;6.53;3.77;;;;;;;24.15;34.20;98094.00;8347614;28;20224;-57
2022/04/14 16:04:55;;;;;;;7.33;3.60;;;;;;;23.95;34.82;98093.28;8348849;28;20211;-57
2022/04/14 16:09:00;;;;;;;6.53;4.10;;;;;;;23.74;34.40;98090.88;8348807;28;20221;-57
2022/04/14 16:13:05;;;;;;;5.27;3.63;;;;;;;23.76;35.13;98091.56;8348643;28;20207;-58
2022/04/14 16:17:09;;;;;;;9.57;5.47;;;;;;;23.75;35.13;98092.56;8348795;28;20216;-57
2022/04/14 16:21:14;;;;;;;8.77;4.13;;;;;;;23.78;35.30;98095.78;8347578;28;20231;-59
2022/04/14 16:25:17;;;;;;;7.97;4.10;;;;;;;23.61;35.97;98092.09;8348046;28;20236;-58
2022/04/14 16:29:22;;;;;;;7.53;4.27;;;;;;;23.46;35.89;98100.66;8348113;28;20196;-59
2022/04/14 16:33:25;;;;;;;8.77;4.30;;;;;;;23.32;36.48;98099.31;8348875;28;20503;-58
2022/04/14 16:37:29;;;;;;;6.70;3.70;;;;;;;23.06;36.96;98102.63;8348365;28;20207;-60
2022/04/14 16:41:33;;;;;;;6.60;3.90;;;;;;;23.00;37.34;98108.44;8348295;28;20424;-59
2022/04/14 16:45:36;;;;;;;5.90;3.57;;;;;;;22.93;37.55;98112.63;8348372;28;20201;-58
2022/04/14 16:49:41;;;;;;;7.13;3.60;;;;;;;22.77;37.53;98110.56;8349903;28;20204;-59
2022/04/14 16:53:47;;;;;;;8.00;3.80;;;;;;;22.57;38.15;98115.88;8354132;28;20255;-59
2022/04/14 16:57:51;;;;;;;9.37;3.77;;;;;;;22.45;38.27;98117.00;8353984;28;20212;-58
2022/04/14 17:01:54;;;;;;;10.00;3.50;;;;;;;22.40;38.88;98117.41;8353278;28;20228;-59
2022/04/14 17:05:58;;;;;;;5.77;3.80;;;;;;;22.30;38.94;98124.50;8354015;28;20224;-59
2022/04/14 17:10:02;;;;;;;11.53;3.97;;;;;;;22.19;39.13;98128.03;8352396;28;20550;-60
2022/04/14 17:14:05;;;;;;;5.37;3.50;;;;;;;22.22;39.07;98126.97;8353171;28;20197;-61
2022/04/14 17:18:08;;;;;;;6.50;3.73;;;;;;;21.92;39.86;98139.25;8353377;28;20200;-60
2022/04/14 17:26:33;;;;;;;11.47;3.40;;;;;;;21.44;41.68;98142.59;8353171;28;20492;-61
2022/04/14 17:30:36;;;;;;;6.33;3.47;;;;;;;21.32;42.50;98159.41;8353030;28;20546;-60
2022/04/14 17:34:39;;;;;;;5.70;3.67;;;;;;;21.19;43.57;98168.34;8353037;28;20215;-60
2022/04/14 17:38:42;;;;;;;8.43;3.60;;;;;;;20.98;44.72;98173.63;8352943;28;20206;-61
2022/04/14 17:42:48;;;;;;;8.17;3.87;;;;;;;20.83;45.00;98183.63;8352506;28;20228;-60
2022/04/14 17:46:55;;;;;;;12.07;4.40;;;;;;;20.72;45.17;98185.50;8352337;28;20478;-61
2022/04/14 17:50:59;;;;;;;11.13;4.80;;;;;;;20.63;45.15;98184.44;8352311;28;20208;-61
2022/04/14 17:55:02;;;;;;;8.83;4.40;;;;;;;20.63;45.19;98195.78;8352424;28;20237;-60
2022/04/14 17:59:07;;;;;;;10.67;4.60;;;;;;;20.53;45.46;98212.44;8352052;28;20492;-60
2022/04/14 18:03:10;;;;;;;7.63;4.33;;;;;;;20.24;45.94;98207.75;8350789;28;20536;-60
2022/04/14 18:07:13;;;;;;;8.80;4.63;;;;;;;20.08;46.24;98214.19;8351591;28;20228;-60
2022/04/14 18:11:16;;;;;;;14.23;4.93;;;;;;;19.98;46.51;98220.31;8350562;28;20498;-60
2022/04/14 18:15:21;;;;;;;11.27;4.70;;;;;;;20.02;46.52;98227.84;8351725;28;20216;-60
2022/04/14 18:19:24;;;;;;;9.57;4.87;;;;;;;20.25;45.85;98230.44;8351385;28;20202;-60
2022/04/14 18:23:27;;;;;;;10.77;4.53;;;;;;;20.26;45.82;98235.56;8351120;28;20228;-60
2022/04/14 18:27:31;;;;;;;8.27;5.27;;;;;;;20.15;46.32;98246.13;8351190;28;20213;-60
2022/04/14 18:31:35;;;;;;;11.70;6.33;;;;;;;20.14;46.05;98246.22;8351081;28;20217;-60
2022/04/14 18:35:38;;;;;;;14.83;7.13;;;;;;;19.90;47.16;98252.47;8350883;28;20498;-60
2022/04/14 18:39:41;;;;;;;11.97;6.70;;;;;;;19.52;48.61;98264.13;8350817;28;20509;-60
2022/04/14 18:43:44;;;;;;;20.57;12.50;;;;;;;19.32;49.64;98271.72;8350532;28;20233;-60
2022/04/14 18:47:50;;;;;;;14.07;11.30;;;;;;;19.30;49.83;98276.22;8350750;28;20213;-60
2022/04/14 18:51:55;;;;;;;10.27;7.20;;;;;;;19.23;50.43;98289.94;8350448;28;20210;-60
2022/04/14 18:56:00;;;;;;;9.70;7.87;;;;;;;19.02;51.65;98298.47;8350665;28;20425;-60
2022/04/14 19:00:05;;;;;;;10.83;7.60;;;;;;;18.92;51.88;98303.56;8350312;28;20212;-69
2022/04/14 19:04:10;;;;;;;10.20;7.53;;;;;;;19.23;50.95;98306.53;8350277;28;20224;-69
2022/04/14 19:08:14;;;;;;;13.77;7.90;;;;;;;18.86;52.43;98316.28;8348104;28;20458;-69